Time;durP1;ratioP1;P1;durP2;ratioP2;P2;SDS_P1;SDS_P2;PMS_P1;PMS_P2;Temp;Humidity;BMP_temperature;BMP_pressure;BME280_temperature;BME280_humidity;BME280_pressure;Samples;Min_cycle;Max_cycle;Signal;HPM_P1;HPM_P2
2024/01/22 00:01:03;;;;;;;8.43;4.40;;;;;;;5.14;100.00;100456.41;5006302;28;20041;-78
2024/01/22 00:03:30;;;;;;;11.32;4.85;;;;;;;5.17;100.00;100456.44;5006010;28;20064;-78
2024/01/22 00:05:58;;;;;;;6.68;4.40;;;;;;;5.21;100.00;100429.50;4990520;28;20153;-78
2024/01/22 00:08:25;;;;;;;15.07;5.00;;;;;;;5.24;100.00;100436.53;5024449;28;20402;-78
2024/01/22 00:10:52;;;;;;;7.03;3.70;;;;;;;5.28;100.00;100389.59;5010277;28;20057;-78
2024/01/22 00:13:20;;;;;;;7.00;4.35;;;;;;;5.31;100.00;100375.69;4971134;28;20064;-78
2024/01/22 00:15:47;;;;;;;5.72;4.47;;;;;;;5.33;100.00;100394.91;5027146;28;20045;-78
2024/01/22 00:18:14;;;;;;;7.38;4.50;;;;;;;5.36;100.00;100365.31;5023900;28;20482;-78
2024/01/22 00:20:42;;;;;;;8.07;4.75;;;;;;;5.38;100.00;100372.31;4988726;28;20053;-78
2024/01/22 00:23:09;;;;;;;7.45;4.43;;;;;;;5.42;100.00;100334.06;4997848;28;20715;-78
2024/01/22 00:25:36;;;;;;;7.15;4.45;;;;;;;5.45;100.00;100327.16;5024555;28;20136;-78
2024/01/22 00:28:04;;;;;;;9.02;4.25;;;;;;;5.46;100.00;100314.97;4971685;28;20046;-78
2024/01/22 00:30:31;;;;;;;8.68;4.65;;;;;;;5.46;100.00;100297.56;5024968;28;20037;-78
2024/01/22 00:32:59;;;;;;;8.75;4.65;;;;;;;5.49;100.00;100303.69;5028073;28;20041;-78
2024/01/22 00:35:27;;;;;;;8.75;4.38;;;;;;;5.51;100.00;100281.06;4992101;28;20056;-78
2024/01/22 00:37:55;;;;;;;7.30;4.10;;;;;;;5.54;100.00;100274.16;4997547;28;20050;-78
2024/01/22 00:40:22;;;;;;;8.35;3.95;;;;;;;5.58;100.00;100241.97;5006354;28;20054;-78
2024/01/22 00:42:49;;;;;;;5.95;3.88;;;;;;;5.62;100.00;100248.13;5002163;28;20065;-78
2024/01/22 00:45:17;;;;;;;7.50;4.38;;;;;;;5.63;100.00;100274.28;4969735;28;20418;-78
2024/01/22 00:47:44;;;;;;;11.27;4.38;;;;;;;5.68;100.00;100260.41;5026638;28;20033;-78
2024/01/22 00:50:11;;;;;;;6.97;4.38;;;;;;;5.69;100.00;100289.19;5022682;28;20057;-78
2024/01/22 00:52:39;;;;;;;7.15;4.32;;;;;;;5.72;100.00;100281.38;4994329;28;20041;-78
2024/01/22 00:55:06;;;;;;;5.20;4.25;;;;;;;5.75;100.00;100270.09;4995909;28;20048;-78
2024/01/22 00:57:37;;;;;;;6.28;4.13;;;;;;;5.79;100.00;100279.72;4991435;28;20054;-78
2024/01/22 01:00:06;;;;;;;5.45;4.45;;;;;;;5.82;100.00;100295.44;4954657;28;20058;-78
2024/01/22 01:02:33;;;;;;;8.95;4.10;;;;;;;5.84;100.00;100288.50;4989874;28;20046;-78
2024/01/22 01:05:01;;;;;;;10.25;4.53;;;;;;;5.87;100.00;100272.84;5026708;28;20056;-78
2024/01/22 01:07:28;;;;;;;7.25;4.32;;;;;;;5.89;100.00;100259.81;4979744;28;20050;-78
2024/01/22 01:09:55;;;;;;;5.32;4.18;;;;;;;5.91;100.00;100238.03;5008094;28;20052;-77
2024/01/22 01:12:23;;;;;;;8.18;4.55;;;;;;;5.93;100.00;100254.63;5004427;28;20145;-76
2024/01/22 01:14:50;;;;;;;6.95;4.00;;;;;;;5.95;100.00;100239.84;4969841;28;20049;-76
2024/01/22 01:17:17;;;;;;;7.32;3.70;;;;;;;5.95;100.00;100237.25;5008290;28;20041;-79
2024/01/22 01:19:45;;;;;;;6.28;3.65;;;;;;;5.97;100.00;100237.25;5006701;28;20061;-77
2024/01/22 01:22:12;;;;;;;6.45;4.28;;;;;;;5.97;100.00;100232.94;5012823;28;20046;-79
2024/01/22 01:24:40;;;;;;;9.73;3.88;;;;;;;6.00;100.00;100234.69;5018606;28;20400;-77
2024/01/22 01:27:07;;;;;;;4.57;4.18;;;;;;;6.02;100.00;100230.34;5008181;28;20411;-79
2024/01/22 01:29:38;;;;;;;8.20;4.07;;;;;;;6.04;100.00;100207.72;5006693;28;20053;-78
2024/01/22 01:32:05;;;;;;;4.32;3.47;;;;;;;6.06;100.00;100200.75;4978698;28;20056;-78
2024/01/22 01:34:33;;;;;;;9.27;4.15;;;;;;;6.07;100.00;100185.94;5014155;28;20048;-78
2024/01/22 01:37:00;;;;;;;7.93;4.40;;;;;;;6.08;100.00;100175.50;5026543;28;20052;-78
2024/01/22 01:39:28;;;;;;;7.03;4.43;;;;;;;6.08;100.00;100165.03;4985902;28;20045;-78
2024/01/22 01:41:55;;;;;;;7.78;4.20;;;;;;;6.10;100.00;100159.81;5008069;28;20061;-78
2024/01/22 01:44:47;;;;;;;7.53;4.47;;;;;;;6.14;100.00;100161.59;5023840;28;20045;-79
2024/01/22 01:47:15;;;;;;;11.05;4.47;;;;;;;6.14;100.00;100167.69;4989886;28;20045;-78
2024/01/22 01:49:43;;;;;;;6.45;4.15;;;;;;;6.15;100.00;100163.38;4990528;28;20054;-78
2024/01/22 01:52:12;;;;;;;8.35;4.10;;;;;;;6.16;100.00;100144.19;5007141;28;20041;-77
2024/01/22 01:54:42;;;;;;;7.13;4.07;;;;;;;6.16;100.00;100165.09;5014789;28;20044;-78
2024/01/22 01:57:10;;;;;;;7.72;4.45;;;;;;;6.20;100.00;100167.78;4990538;28;20046;-78
2024/01/22 01:59:41;;;;;;;9.65;4.03;;;;;;;6.23;100.00;100144.25;5008239;28;20155;-78
2024/01/22 02:02:09;;;;;;;8.05;4.68;;;;;;;6.27;100.00;100136.44;4976309;28;20414;-78
2024/01/22 02:04:36;;;;;;;11.30;4.28;;;;;;;6.29;100.00;100121.63;5007036;28;20498;-78
2024/01/22 02:07:04;;;;;;;7.15;3.70;;;;;;;6.31;100.00;100120.78;5002967;28;20780;-78
2024/01/22 02:09:48;;;;;;;5.53;3.80;;;;;;;6.35;100.00;100100.75;4993500;28;20053;-77
2024/01/22 02:12:16;;;;;;;7.05;4.20;;;;;;;6.37;100.00;100117.31;5013950;28;20040;-78
2024/01/22 02:14:45;;;;;;;11.68;4.22;;;;;;;6.42;100.00;100105.16;4989452;28;20042;-78
2024/01/22 02:17:13;;;;;;;10.43;4.38;;;;;;;6.44;100.00;100100.81;4988406;28;20073;-78
2024/01/22 02:19:40;;;;;;;15.75;4.97;;;;;;;6.47;100.00;100087.78;5007680;28;20045;-78
2024/01/22 02:22:08;;;;;;;7.00;4.63;;;;;;;6.50;100.00;100084.28;5024506;28;20385;-77
2024/01/22 02:24:36;;;;;;;7.30;4.28;;;;;;;6.51;100.00;100084.31;5007093;28;20054;-79
2024/01/22 02:27:03;;;;;;;5.93;4.13;;;;;;;6.52;100.00;100079.94;4998801;28;20053;-77
2024/01/22 02:29:31;;;;;;;8.15;3.97;;;;;;;6.53;100.00;100072.09;4991069;28;20227;-77
2024/01/22 02:31:58;;;;;;;8.18;4.25;;;;;;;6.54;100.00;100055.53;4968028;28;20494;-78
2024/01/22 02:34:25;;;;;;;6.28;4.18;;;;;;;6.56;100.00;100045.97;4991330;28;20041;-78
2024/01/22 02:36:53;;;;;;;6.20;4.35;;;;;;;6.57;100.00;100054.69;5022661;28;20052;-79
2024/01/22 02:39:20;;;;;;;8.65;3.65;;;;;;;6.58;100.00;100045.97;5007103;28;20482;-78
2024/01/22 02:41:48;;;;;;;7.88;4.32;;;;;;;6.62;100.00;100011.97;4996231;28;20057;-78
2024/01/22 02:44:15;;;;;;;8.32;4.90;;;;;;;6.63;100.00;100026.81;5010859;28;20154;-78
2024/01/22 02:46:42;;;;;;;6.07;3.45;;;;;;;6.66;100.00;99988.44;5010437;28;20045;-78
2024/01/22 02:49:10;;;;;;;7.13;4.25;;;;;;;6.69;100.00;99985.81;4991881;28;20045;-78
2024/01/22 02:51:37;;;;;;;6.43;4.10;;;;;;;6.73;100.00;99964.00;5010885;28;20101;-77
2024/01/22 02:54:05;;;;;;;6.63;4.05;;;;;;;6.78;100.00;99983.22;5027492;28;20053;-78
2024/01/22 02:56:32;;;;;;;5.75;3.90;;;;;;;6.80;100.00;99965.78;5001419;28;20050;-78
2024/01/22 02:59:00;;;;;;;8.73;4.38;;;;;;;6.84;100.00;99962.31;5009682;28;20557;-78
2024/01/22 03:01:27;;;;;;;4.15;3.33;;;;;;;6.84;100.00;99946.59;5011327;28;20474;-77
2024/01/22 03:03:55;;;;;;;5.32;3.22;;;;;;;6.90;100.00;99936.16;4990512;28;20046;-78
2024/01/22 03:06:23;;;;;;;5.63;4.05;;;;;;;6.95;100.00;99934.41;5011878;28;20056;-78
2024/01/22 03:08:50;;;;;;;4.55;3.60;;;;;;;6.95;100.00;99918.69;5009262;28;20423;-78
2024/01/22 03:11:18;;;;;;;4.35;3.90;;;;;;;6.98;100.00;99913.47;5024644;28;20065;-78
2024/01/22 03:13:45;;;;;;;6.53;3.78;;;;;;;6.98;100.00;99900.38;5000020;28;20483;-77
2024/01/22 03:16:12;;;;;;;12.05;4.28;;;;;;;6.99;100.00;99903.88;5010986;28;20451;-78
2024/01/22 03:18:39;;;;;;;10.70;4.40;;;;;;;7.00;100.00;99898.63;4996990;28;20076;-78
2024/01/22 03:21:07;;;;;;;7.90;3.60;;;;;;;6.98;100.00;99895.13;5007383;28;20052;-78
2024/01/22 03:23:35;;;;;;;5.10;3.97;;;;;;;7.00;100.00;99897.78;5011549;28;20041;-78
2024/01/22 03:26:02;;;;;;;5.75;3.67;;;;;;;7.01;100.00;99894.25;5010418;28;20049;-78
2024/01/22 03:28:30;;;;;;;9.75;4.03;;;;;;;7.03;100.00;99897.75;5021337;28;20041;-78
2024/01/22 03:30:57;;;;;;;6.45;3.72;;;;;;;7.06;100.00;99891.66;5008141;28;20410;-78
2024/01/22 03:33:24;;;;;;;9.32;4.28;;;;;;;7.07;100.00;99885.53;5005942;28;20038;-78
2024/01/22 03:35:52;;;;;;;6.80;4.40;;;;;;;7.07;100.00;99870.72;4990013;28;20049;-77
2024/01/22 03:38:19;;;;;;;10.50;4.22;;;;;;;7.10;100.00;99882.94;5027550;28;20049;-77
2024/01/22 03:40:46;;;;;;;7.10;3.80;;;;;;;7.10;100.00;99880.31;5012257;28;20053;-78
2024/01/22 03:43:14;;;;;;;4.97;3.80;;;;;;;7.09;100.00;99857.59;5005567;28;20041;-78
2024/01/22 03:45:41;;;;;;;11.38;4.50;;;;;;;7.12;100.00;99881.19;5008907;28;20049;-78
2024/01/22 03:48:09;;;;;;;7.70;4.13;;;;;;;7.11;100.00;99859.38;5010603;28;20053;-80
2024/01/22 03:50:36;;;;;;;6.97;4.03;;;;;;;7.12;100.00;99866.34;4959215;28;20080;-78
2024/01/22 03:53:04;;;;;;;9.23;4.25;;;;;;;7.13;100.00;99885.56;5010763;28;20053;-77
2024/01/22 03:55:31;;;;;;;6.43;4.38;;;;;;;7.13;100.00;99873.34;5009111;28;20048;-78
2024/01/22 03:57:58;;;;;;;5.10;4.13;;;;;;;7.15;100.00;99868.13;5011419;28;20049;-78
2024/01/22 04:00:26;;;;;;;7.63;5.07;;;;;;;7.14;100.00;99853.25;4982140;28;20060;-78
2024/01/22 04:02:53;;;;;;;8.13;4.07;;;;;;;7.15;100.00;99857.63;5011042;28;20886;-78
2024/01/22 04:05:21;;;;;;;6.70;4.07;;;;;;;7.17;100.00;99850.66;4974727;28;20053;-79
2024/01/22 04:07:49;;;;;;;4.43;3.78;;;;;;;7.17;100.00;99834.94;5027107;28;20414;-78
2024/01/22 04:10:16;;;;;;;4.18;3.78;;;;;;;7.17;100.00;99846.28;5009048;28;20526;-78
2024/01/22 04:12:43;;;;;;;5.93;3.85;;;;;;;7.19;100.00;99831.41;5009761;28;20037;-78
2024/01/22 04:15:10;;;;;;;4.65;3.80;;;;;;;7.20;100.00;99838.44;5004812;28;20676;-79
2024/01/22 04:17:38;;;;;;;5.80;4.00;;;;;;;7.23;100.00;99820.06;5022292;28;20034;-78
2024/01/22 04:20:06;;;;;;;4.22;3.53;;;;;;;7.23;100.00;99829.69;5026562;28;20049;-78
2024/01/22 04:22:34;;;;;;;4.25;3.85;;;;;;;7.24;100.00;99826.19;4990373;28;20049;-78
2024/01/22 04:25:01;;;;;;;4.72;3.72;;;;;;;7.25;100.00;99821.81;5010644;28;20049;-77
2024/01/22 04:27:28;;;;;;;6.35;3.65;;;;;;;7.26;100.00;99819.22;5008794;28;20487;-78
2024/01/22 04:29:56;;;;;;;4.90;3.85;;;;;;;7.27;100.00;99799.13;5028837;28;20057;-78
2024/01/22 04:32:23;;;;;;;6.97;3.28;;;;;;;7.30;100.00;99814.84;4999260;28;20049;-78
2024/01/22 04:34:52;;;;;;;6.10;3.97;;;;;;;7.32;100.00;99818.34;5028368;28;20049;-78
2024/01/22 04:37:21;;;;;;;4.45;3.53;;;;;;;7.34;100.00;99806.97;4971186;28;20065;-78
2024/01/22 04:39:48;;;;;;;4.15;3.58;;;;;;;7.35;100.00;99811.34;4993818;28;20422;-78
2024/01/22 04:42:20;;;;;;;4.53;3.38;;;;;;;7.36;100.00;99805.22;5009399;28;20049;-78
2024/01/22 04:44:47;;;;;;;4.50;3.03;;;;;;;7.40;100.00;99791.22;5028067;28;20411;-78
2024/01/22 04:47:15;;;;;;;3.38;2.90;;;;;;;7.44;100.00;99799.97;5003657;28;20052;-78
2024/01/22 04:49:42;;;;;;;3.78;3.38;;;;;;;7.44;100.00;99792.09;5023914;28;20415;-78
2024/01/22 04:52:09;;;;;;;4.45;2.85;;;;;;;7.48;100.00;99795.59;4999416;28;20103;-78
2024/01/22 04:54:37;;;;;;;4.57;3.50;;;;;;;7.52;100.00;99781.59;4992200;28;20049;-78
2024/01/22 04:57:04;;;;;;;3.22;2.92;;;;;;;7.55;100.00;99789.47;5009765;28;20049;-78
2024/01/22 04:59:32;;;;;;;3.78;3.47;;;;;;;7.55;100.00;99790.34;5007484;28;20395;-78
2024/01/22 05:01:59;;;;;;;3.78;3.08;;;;;;;7.56;100.00;99786.88;4987886;28;20057;-78
2024/01/22 05:04:26;;;;;;;3.25;2.58;;;;;;;7.58;100.00;99776.34;4991110;28;20038;-78
2024/01/22 05:06:54;;;;;;;3.40;3.10;;;;;;;7.61;100.00;99778.97;5008468;28;20061;-78
2024/01/22 05:09:21;;;;;;;6.43;2.97;;;;;;;7.64;100.00;99762.34;4979031;28;20057;-78
2024/01/22 05:11:50;;;;;;;4.22;2.55;;;;;;;7.67;100.00;99767.59;5027548;28;20419;-78
2024/01/22 05:14:17;;;;;;;2.90;2.70;;;;;;;7.73;100.00;99783.31;5001622;28;20388;-78
2024/01/22 05:16:44;;;;;;;2.22;2.03;;;;;;;7.79;100.00;99768.44;4993393;28;20053;-78
2024/01/22 05:19:12;;;;;;;4.88;2.40;;;;;;;7.81;100.00;99765.84;4999576;28;20056;-79
2024/01/22 05:21:40;;;;;;;3.30;2.42;;;;;;;7.84;100.00;99775.44;5025592;28;20057;-78
2024/01/22 05:24:08;;;;;;;2.35;2.20;;;;;;;7.89;100.00;99755.31;4981373;28;20038;-79
2024/01/22 05:26:35;;;;;;;2.75;2.55;;;;;;;7.91;100.00;99761.44;5013777;28;20041;-78
2024/01/22 05:29:02;;;;;;;4.30;2.20;;;;;;;7.95;100.00;99765.78;5025676;28;20045;-78
2024/01/22 05:31:30;;;;;;;2.92;2.65;;;;;;;7.97;100.00;99756.16;5008359;28;20109;-78
2024/01/22 05:33:57;;;;;;;2.50;2.30;;;;;;;8.00;100.00;99761.41;5009821;28;20053;-78
2024/01/22 05:36:25;;;;;;;3.70;2.70;;;;;;;8.02;100.00;99757.00;4997764;28;20045;-78
2024/01/22 05:38:52;;;;;;;2.60;2.40;;;;;;;8.05;100.00;99733.38;4983893;28;20057;-77
2024/01/22 05:41:20;;;;;;;2.45;2.25;;;;;;;8.10;100.00;99746.47;4975820;28;20045;-78
2024/01/22 05:43:47;;;;;;;3.00;2.20;;;;;;;8.12;100.00;99732.47;5007313;28;20057;-78
2024/01/22 05:46:15;;;;;;;3.38;2.55;;;;;;;8.16;100.00;99751.69;5024023;28;20049;-78
2024/01/22 05:48:42;;;;;;;4.03;2.63;;;;;;;8.18;100.00;99742.97;5006806;28;20045;-79
2024/01/22 05:51:10;;;;;;;2.33;2.20;;;;;;;8.24;100.00;99742.06;4995651;28;20053;-78
2024/01/22 05:53:38;;;;;;;5.15;2.63;;;;;;;8.28;100.00;99743.78;5031518;28;20594;-78
2024/01/22 05:56:06;;;;;;;2.15;2.05;;;;;;;8.31;100.00;99750.75;4972584;28;20045;-78
2024/01/22 05:58:34;;;;;;;3.10;2.20;;;;;;;8.33;100.00;99743.75;4991676;28;20061;-78
2024/01/22 06:01:01;;;;;;;3.70;2.08;;;;;;;8.37;100.00;99745.47;5023257;28;20056;-78
2024/01/22 06:03:28;;;;;;;2.22;2.03;;;;;;;8.39;100.00;99738.44;5003901;28;20053;-78
2024/01/22 06:05:56;;;;;;;2.10;1.90;;;;;;;8.44;100.00;99744.59;5015527;28;20042;-77
2024/01/22 06:08:23;;;;;;;4.43;1.75;;;;;;;8.47;100.00;99734.09;5006709;28;20049;-77
2024/01/22 06:10:50;;;;;;;2.08;1.98;;;;;;;8.50;100.00;99717.41;4959457;28;20410;-78
2024/01/22 06:13:18;;;;;;;2.78;2.00;;;;;;;8.51;100.00;99741.06;4977535;28;20049;-77
2024/01/22 06:15:45;;;;;;;3.72;2.03;;;;;;;8.55;100.00;99742.78;5005294;28;20083;-77
2024/01/22 06:18:13;;;;;;;2.83;1.83;;;;;;;8.56;100.00;99759.38;5010171;28;20109;-78
2024/01/22 06:20:41;;;;;;;2.35;1.80;;;;;;;8.55;100.00;99745.41;5028482;28;20060;-77
2024/01/22 06:23:08;;;;;;;6.05;1.73;;;;;;;8.56;100.00;99762.91;4999696;28;20033;-78
2024/01/22 06:25:35;;;;;;;5.57;2.20;;;;;;;8.57;100.00;99763.78;5015442;28;20522;-77
2024/01/22 06:28:03;;;;;;;2.83;1.90;;;;;;;8.59;100.00;99746.25;4954820;28;20081;-77
2024/01/22 06:30:30;;;;;;;2.58;2.03;;;;;;;8.58;100.00;99740.13;5002564;28;20048;-78
2024/01/22 06:32:57;;;;;;;8.20;2.60;;;;;;;8.57;100.00;99742.78;5003685;28;20057;-77
2024/01/22 06:35:25;;;;;;;4.20;2.13;;;;;;;8.58;100.00;99739.25;5001402;28;20058;-78
2024/01/22 06:37:53;;;;;;;3.97;2.20;;;;;;;8.59;100.00;99755.00;4996771;28;20053;-79
2024/01/22 06:40:20;;;;;;;6.57;1.83;;;;;;;8.68;100.00;99759.31;5023601;28;20056;-78
2024/01/22 06:42:48;;;;;;;6.13;1.70;;;;;;;8.77;100.00;99761.91;4964212;28;20061;-79
2024/01/22 06:45:15;;;;;;;4.95;1.67;;;;;;;8.79;100.00;99769.78;5006704;28;20396;-79
2024/01/22 06:47:42;;;;;;;4.38;1.80;;;;;;;8.85;100.00;99761.84;5006550;28;20518;-80
2024/01/22 06:50:10;;;;;;;4.53;1.55;;;;;;;8.89;100.00;99771.44;5023713;28;20060;-79
2024/01/22 06:52:38;;;;;;;7.55;1.67;;;;;;;8.90;100.00;99762.69;4994970;28;20050;-80
2024/01/22 06:55:06;;;;;;;6.43;1.98;;;;;;;8.95;100.00;99778.41;4976128;28;20042;-79
2024/01/22 06:57:33;;;;;;;5.22;1.80;;;;;;;8.97;100.00;99780.13;4963140;28;20056;-79
2024/01/22 07:00:06;;;;;;;4.22;1.50;;;;;;;9.01;100.00;99774.84;4993749;28;20046;-79
2024/01/22 07:02:35;;;;;;;10.18;2.40;;;;;;;9.02;100.00;99787.09;5005920;28;20056;-79
2024/01/22 07:05:04;;;;;;;4.53;1.77;;;;;;;9.03;100.00;99794.13;5006909;28;20049;-79
2024/01/22 07:07:32;;;;;;;5.05;1.75;;;;;;;9.03;100.00;99784.47;5009131;28;20050;-79
2024/01/22 07:09:59;;;;;;;8.45;2.10;;;;;;;9.04;100.00;99769.59;5000958;28;20053;-79
2024/01/22 07:12:29;;;;;;;8.05;2.55;;;;;;;9.04;100.00;99790.63;4993825;28;20046;-79
2024/01/22 07:14:58;;;;;;;;;;;;;;;9.05;100.00;99773.94;4962405;28;20053;-79
2024/01/22 07:17:25;;;;;;;5.28;2.05;;;;;;;9.06;100.00;99786.22;5004494;28;19932;-79
2024/01/22 07:19:53;;;;;;;5.28;1.95;;;;;;;9.07;100.00;99793.19;4989614;28;20057;-78
2024/01/22 07:22:20;;;;;;;6.82;2.13;;;;;;;9.07;100.00;99794.06;5008077;28;20061;-79
2024/01/22 07:24:47;;;;;;;10.70;2.40;;;;;;;9.09;100.00;99794.94;4999726;28;20056;-78
2024/01/22 07:27:15;;;;;;;10.75;1.92;;;;;;;9.09;100.00;99810.72;5007053;28;20495;-77
2024/01/22 07:29:42;;;;;;;8.98;2.28;;;;;;;9.11;100.00;99805.44;4971970;28;20049;-78
2024/01/22 07:32:10;;;;;;;14.05;3.03;;;;;;;9.10;100.00;99822.09;5011946;28;20046;-77
2024/01/22 07:34:37;;;;;;;15.23;2.92;;;;;;;9.08;100.00;99813.34;4997403;28;20048;-78
2024/01/22 07:37:06;;;;;;;9.98;2.70;;;;;;;9.10;100.00;99814.22;4995113;28;20057;-78
2024/01/22 07:39:33;;;;;;;15.27;3.13;;;;;;;9.11;100.00;99835.25;5025506;28;20041;-78
2024/01/22 07:42:01;;;;;;;26.00;3.92;;;;;;;9.12;100.00;99841.34;4998629;28;20059;-78
2024/01/22 07:44:28;;;;;;;19.80;4.32;;;;;;;9.14;100.00;99835.19;4982544;28;20053;-78
2024/01/22 07:46:56;;;;;;;22.85;4.10;;;;;;;9.14;100.00;99856.22;4991550;28;20045;-78
2024/01/22 07:49:23;;;;;;;15.60;4.35;;;;;;;9.17;100.00;99889.53;5009764;28;20053;-78
2024/01/22 07:51:51;;;;;;;23.10;4.60;;;;;;;9.17;100.00;99882.50;4999163;28;20057;-78
2024/01/22 07:54:18;;;;;;;23.13;4.57;;;;;;;9.18;100.00;99900.00;4999190;28;20052;-79
2024/01/22 07:56:47;;;;;;;19.55;4.70;;;;;;;9.17;100.00;99900.91;5015405;28;20396;-78
2024/01/22 07:59:14;;;;;;;26.48;5.85;;;;;;;9.15;100.00;99907.06;5010712;28;20513;-78
2024/01/22 08:01:42;;;;;;;25.23;5.28;;;;;;;9.13;100.00;99922.84;4968541;28;20076;-78
2024/01/22 08:04:09;;;;;;;26.27;5.30;;;;;;;9.10;100.00;99930.72;5027322;28;20830;-78
2024/01/22 08:06:37;;;;;;;22.73;4.63;;;;;;;9.06;100.00;99915.84;4982743;28;20060;-78
2024/01/22 08:09:05;;;;;;;22.77;4.63;;;;;;;9.02;100.00;99931.63;5013686;28;20041;-78
2024/01/22 08:11:32;;;;;;;17.13;4.07;;;;;;;8.95;100.00;99931.66;5001172;28;20050;-78
2024/01/22 08:14:00;;;;;;;17.10;3.15;;;;;;;8.90;100.00;99928.22;4994297;28;20073;-79
2024/01/22 08:16:27;;;;;;;12.80;3.15;;;;;;;8.85;100.00;99937.84;4962804;28;20041;-77
2024/01/22 08:18:55;;;;;;;16.83;3.50;;;;;;;8.82;100.00;99948.38;5007807;28;20059;-80
2024/01/22 08:21:22;;;;;;;15.23;2.58;;;;;;;8.74;100.00;99950.16;4996903;28;20062;-79
2024/01/22 08:23:50;;;;;;;12.30;2.33;;;;;;;8.67;100.00;99951.06;4990416;28;20046;-79
2024/01/22 08:26:17;;;;;;;9.80;2.53;;;;;;;8.60;100.00;99973.84;4999952;28;20050;-79
2024/01/22 08:28:45;;;;;;;19.63;2.92;;;;;;;8.57;100.00;99979.97;5009319;28;20050;-79
2024/01/22 08:31:12;;;;;;;11.38;2.90;;;;;;;8.55;100.00;99978.25;4992831;28;20045;-79
2024/01/22 08:33:39;;;;;;;11.15;2.15;;;;;;;8.52;100.00;99979.09;5029218;28;20041;-79
2024/01/22 08:36:07;;;;;;;9.88;2.30;;;;;;;8.51;100.00;99992.25;5008194;28;20064;-78
2024/01/22 08:38:35;;;;;;;7.63;2.85;;;;;;;8.52;100.00;99994.00;5004026;28;20041;-79
2024/01/22 08:41:08;;;;;;;10.63;1.98;;;;;;;8.51;100.00;99995.75;4986464;28;20061;-79
2024/01/22 08:43:35;;;;;;;9.57;2.45;;;;;;;8.51;100.00;100006.25;4999003;28;20072;-79
2024/01/22 08:46:03;;;;;;;11.10;2.65;;;;;;;8.51;100.00;100014.13;4988988;28;20470;-77
2024/01/22 08:48:33;;;;;;;10.75;3.17;;;;;;;8.50;100.00;100015.00;4971389;28;20053;-79
2024/01/22 08:51:00;;;;;;;7.38;2.20;;;;;;;8.49;100.00;100013.25;5006413;28;20045;-79
2024/01/22 08:53:28;;;;;;;10.30;2.28;;;;;;;8.48;100.00;100036.88;4983472;28;20053;-79
2024/01/22 08:55:55;;;;;;;12.15;2.47;;;;;;;8.48;100.00;100048.25;4998141;28;20049;-79
2024/01/22 08:58:25;;;;;;;12.30;2.43;;;;;;;8.46;100.00;100042.13;5014176;28;20095;-78
2024/01/22 09:00:53;;;;;;;12.10;3.20;;;;;;;8.45;100.00;100053.53;5010351;28;20069;-79
2024/01/22 09:03:24;;;;;;;18.67;3.78;;;;;;;8.45;100.00;100055.25;4991468;28;20049;-79
2024/01/22 09:05:51;;;;;;;22.15;5.00;;;;;;;8.44;100.00;100059.63;4996807;28;20053;-79
2024/01/22 09:08:19;;;;;;;30.58;5.22;;;;;;;8.41;100.00;100056.97;4999395;28;20053;-78
2024/01/22 09:10:46;;;;;;;21.77;4.57;;;;;;;8.40;100.00;100065.75;5011871;28;20057;-79
2024/01/22 09:13:14;;;;;;;27.45;5.82;;;;;;;8.38;100.00;100054.38;5008695;28;20045;-79
2024/01/22 09:15:41;;;;;;;32.97;5.60;;;;;;;8.35;100.00;100073.59;5004407;28;20037;-78
2024/01/22 09:18:08;;;;;;;27.50;5.53;;;;;;;8.34;100.00;100069.25;4970407;28;20053;-79
2024/01/22 09:20:36;;;;;;;36.25;6.60;;;;;;;8.33;100.00;100074.50;5006241;28;20041;-79
2024/01/22 09:23:03;;;;;;;30.33;5.10;;;;;;;8.35;100.00;100080.63;5024159;28;20041;-78
2024/01/22 09:25:31;;;;;;;31.17;6.43;;;;;;;8.35;100.00;100085.88;4993673;28;20049;-79
2024/01/22 09:27:58;;;;;;;41.05;7.30;;;;;;;8.35;100.00;100094.59;5013992;28;20537;-78
2024/01/22 09:30:26;;;;;;;44.10;6.95;;;;;;;8.35;100.00;100091.13;5027844;28;20026;-78
2024/01/22 09:32:57;;;;;;;31.70;6.75;;;;;;;8.35;100.00;100088.50;5013874;28;20056;-80
2024/01/22 09:35:26;;;;;;;41.50;8.02;;;;;;;8.35;100.00;100097.22;4993856;28;20045;-79
2024/01/22 09:37:54;;;;;;;52.92;8.50;;;;;;;8.36;100.00;100103.38;5007827;28;20053;-79
2024/01/22 09:40:24;;;;;;;54.10;8.70;;;;;;;8.36;100.00;100111.25;4992607;28;20041;-79
2024/01/22 09:43:03;;;;;;;47.88;9.70;;;;;;;8.35;100.00;100105.09;5000118;28;20053;-79
2024/01/22 09:45:32;;;;;;;64.32;10.30;;;;;;;8.36;100.00;100120.00;5001072;28;20049;-79
2024/01/22 09:48:00;;;;;;;42.65;9.18;;;;;;;8.38;100.00;100110.38;5007921;28;20054;-79
2024/01/22 09:50:28;;;;;;;60.47;9.43;;;;;;;8.40;100.00;100120.88;4964434;28;20506;-79
2024/01/22 09:53:10;;;;;;;57.05;10.70;;;;;;;8.46;100.00;100120.91;5005327;28;20053;-79
2024/01/22 09:55:43;;;;;;;51.38;8.93;;;;;;;8.46;100.00;100112.16;5009553;28;20513;-79
2024/01/22 09:58:18;;;;;;;38.05;7.82;;;;;;;8.51;100.00;100110.41;5001298;28;20057;-78
2024/01/22 10:00:46;;;;;;;47.75;9.13;;;;;;;8.55;100.00;100123.53;4997542;28;20410;-78
2024/01/22 10:03:15;;;;;;;50.65;8.10;;;;;;;8.61;100.00;100137.56;5008073;28;20866;-79
2024/01/22 10:05:45;;;;;;;43.65;9.20;;;;;;;8.62;100.00;100134.03;4967125;28;20042;-80
2024/01/22 10:08:13;;;;;;;53.83;9.50;;;;;;;8.64;100.00;100148.94;4992056;28;20049;-79
2024/01/22 10:10:40;;;;;;;41.60;7.75;;;;;;;8.61;100.00;100148.06;5027213;28;20490;-79
2024/01/22 10:13:08;;;;;;;44.00;8.40;;;;;;;8.59;100.00;100145.41;5011276;28;20948;-78
2024/01/22 10:15:37;;;;;;;38.22;7.15;;;;;;;8.62;100.00;100152.41;4996126;28;20034;-78
2024/01/22 10:18:15;;;;;;;40.20;7.00;;;;;;;8.64;100.00;100150.66;5021936;28;20772;-79
2024/01/22 10:20:46;;;;;;;32.53;6.53;;;;;;;8.64;100.00;100146.31;4968903;28;20041;-79
2024/01/22 10:23:16;;;;;;;38.20;7.22;;;;;;;8.64;100.00;100148.94;5006675;28;20046;-79
2024/01/22 10:25:44;;;;;;;44.15;7.43;;;;;;;8.64;100.00;100154.19;5016682;28;20049;-79
2024/01/22 10:28:17;;;;;;;38.67;8.07;;;;;;;8.68;100.00;100157.69;5008153;28;20052;-79
2024/01/22 10:31:00;;;;;;;34.20;7.45;;;;;;;8.71;100.00;100160.28;4991052;28;20076;-79
2024/01/22 10:33:28;;;;;;;32.20;6.63;;;;;;;8.75;100.00;100168.19;5022985;28;20042;-79
2024/01/22 10:35:58;;;;;;;28.75;6.88;;;;;;;8.80;100.00;100165.56;4965289;28;20052;-79
2024/01/22 10:38:26;;;;;;;36.13;6.53;;;;;;;8.80;100.00;100160.28;5020057;28;20056;-78
2024/01/22 10:40:53;;;;;;;27.35;6.07;;;;;;;8.83;100.00;100175.16;5002520;28;20056;-78
2024/01/22 10:43:29;;;;;;;30.30;6.50;;;;;;;8.84;100.00;100188.31;5020290;28;20049;-79
2024/01/22 10:45:58;;;;;;;36.80;6.93;;;;;;;8.86;100.00;100190.94;4985495;28;20490;-79
2024/01/22 10:48:30;;;;;;;28.25;7.10;;;;;;;8.88;100.00;100204.97;5019175;28;20499;-80
2024/01/22 10:51:11;;;;;;;40.95;8.07;;;;;;;8.89;100.00;100194.44;4992540;28;20716;-79
2024/01/22 10:53:41;;;;;;;38.40;6.35;;;;;;;8.90;100.00;100197.94;5010325;28;20057;-78
2024/01/22 10:56:22;;;;;;;31.65;6.80;;;;;;;8.89;100.00;100206.72;5030538;28;20040;-79
2024/01/22 10:58:55;;;;;;;36.28;7.30;;;;;;;8.91;100.00;100204.97;5001524;28;20057;-79
2024/01/22 11:01:24;;;;;;;27.25;6.03;;;;;;;8.92;100.00;100212.84;5010234;28;20407;-80
2024/01/22 11:03:55;;;;;;;28.80;5.47;;;;;;;8.94;100.00;100210.19;5032671;28;20049;-78
2024/01/22 11:06:27;;;;;;;32.25;6.38;;;;;;;8.93;100.00;100213.72;4973388;28;20056;-79
2024/01/22 11:08:56;;;;;;;22.42;5.40;;;;;;;8.95;100.00;100220.72;5005310;28;20049;-79
2024/01/22 11:11:27;;;;;;;26.23;5.43;;;;;;;9.00;100.00;100219.84;5018520;28;20053;-80
2024/01/22 11:13:56;;;;;;;22.73;4.63;;;;;;;9.03;100.00;100211.97;5027416;28;20064;-80
2024/01/22 11:16:24;;;;;;;23.23;5.38;;;;;;;9.04;100.00;100221.63;5015647;28;20057;-80
2024/01/22 11:19:03;;;;;;;22.90;5.28;;;;;;;9.06;100.00;100225.97;5042631;28;20433;-81
2024/01/22 11:21:38;;;;;;;24.35;5.97;;;;;;;9.06;100.00;100225.97;4982511;28;20426;-81
2024/01/22 11:24:19;;;;;;;22.25;4.95;;;;;;;9.08;100.00;100228.63;5006260;28;20517;-79
2024/01/22 11:26:50;;;;;;;32.20;5.70;;;;;;;9.11;100.00;100224.22;5016728;28;20049;-80
2024/01/22 11:29:23;;;;;;;21.00;4.30;;;;;;;9.12;100.00;100233.84;5033108;28;20041;-80
2024/01/22 11:31:51;;;;;;;25.02;3.85;;;;;;;9.14;100.00;100239.13;5008293;28;20053;-80